PWSweather.com
Personal Weather Stations
Station Observations
KAZPHOEN90
RayThunderhill, Phoenix, AZ

RayThunderhillPhoenix, AZ

Lat: 33.312, Lon: -112.029

Elevation: 1260

Station Type: Davis Vantage VUE

High Low Average
Temperature 112.9°F44.9°F 87.9°F31.1°F 100.1°F37.8°F
Dew Point 60.7°F15.9°F 50.3°F10.2°F 56.4°F13.6°F
Winds 7.2 mph NNW11.6 mph NNW Calm Calm 1.2 mph 1.9 mph
Wind Gusts 11.0 mph17.7 mph -- 2.3 mph3.7 mph
Humidity 39% 15% 25%
Pressure 29.83 in1010.20 in 29.63 in1003.40 in -
Precipitation 0.00 in0.00 in - -
Hour Temp Dew Point Humidity Winds Wind Gusts Pressure Precip Precip Rate Daily Precip Total
12:00 AM 95.7°F35.4°C 55.3°F12.9°C 26% Calm Calm -- 29.72 in1006.4 mb - 0.00 in0.0 mm 0.00 in0.0 mm
12:15 AM 95.0°F35.0°C 56.8°F13.8°C 28% 0.3 mph SSW0.5 kmh SSW 3.0 mph4.8 kmh 29.72 in1006.4 mb - 0.00 in0.0 mm 0.00 in0.0 mm
12:30 AM 94.8°F34.9°C 55.6°F13.1°C 27% Calm Calm -- 29.73 in1006.8 mb - 0.00 in0.0 mm 0.00 in0.0 mm
12:45 AM 93.8°F34.3°C 56.8°F13.8°C 29% Calm Calm -- 29.73 in1006.8 mb - 0.00 in0.0 mm 0.00 in0.0 mm
01:00 AM 93.1°F33.9°C 57.0°F13.9°C 30% Calm Calm -- 29.72 in1006.4 mb - 0.00 in0.0 mm 0.00 in0.0 mm
01:15 AM 92.4°F33.6°C 58.3°F14.6°C 32% Calm Calm -- 29.72 in1006.4 mb - 0.00 in0.0 mm 0.00 in0.0 mm
01:30 AM 91.4°F33.0°C 57.4°F14.1°C 32% Calm Calm -- 29.72 in1006.4 mb - 0.00 in0.0 mm 0.00 in0.0 mm
01:45 AM 91.1°F32.8°C 58.8°F14.9°C 34% Calm Calm -- 29.73 in1006.8 mb - 0.00 in0.0 mm 0.00 in0.0 mm
02:00 AM 91.4°F33.0°C 59.1°F15.1°C 34% 1.0 mph NE1.6 kmh NE 3.0 mph4.8 kmh 29.73 in1006.8 mb - 0.00 in0.0 mm 0.00 in0.0 mm
02:15 AM 91.6°F33.1°C 60.1°F15.6°C 35% Calm Calm -- 29.74 in1007.1 mb - 0.00 in0.0 mm 0.00 in0.0 mm
02:30 AM 91.7°F33.2°C 59.4°F15.2°C 34% 0.5 mph NNW0.8 kmh NNW 2.0 mph3.2 kmh 29.75 in1007.5 mb - 0.00 in0.0 mm 0.00 in0.0 mm
02:45 AM 91.6°F33.1°C 59.3°F15.2°C 34% 0.3 mph ENE0.5 kmh ENE 2.0 mph3.2 kmh 29.75 in1007.5 mb - 0.00 in0.0 mm 0.00 in0.0 mm
03:00 AM 91.8°F33.2°C 58.6°F14.8°C 33% 0.8 mph SE1.3 kmh SE 1.0 mph1.6 kmh 29.76 in1007.8 mb - 0.00 in0.0 mm 0.00 in0.0 mm
03:15 AM 91.6°F33.1°C 59.2°F15.1°C 34% 0.2 mph N0.3 kmh N 1.0 mph1.6 kmh 29.76 in1007.8 mb - 0.00 in0.0 mm 0.00 in0.0 mm
03:30 AM 91.5°F33.1°C 58.3°F14.6°C 33% 0.1 mph S0.2 kmh S 1.0 mph1.6 kmh 29.77 in1008.1 mb - 0.00 in0.0 mm 0.00 in0.0 mm
03:45 AM 90.8°F32.7°C 57.7°F14.3°C 33% Calm Calm -- 29.77 in1008.1 mb - 0.00 in0.0 mm 0.00 in0.0 mm
04:00 AM 90.5°F32.5°C 58.3°F14.6°C 34% 0.1 mph SW0.2 kmh SW 2.0 mph3.2 kmh 29.78 in1008.5 mb - 0.00 in0.0 mm 0.00 in0.0 mm
04:15 AM 91.6°F33.1°C 57.5°F14.2°C 32% 3.5 mph ESE5.6 kmh ESE 6.0 mph9.7 kmh 29.79 in1008.8 mb - 0.00 in0.0 mm 0.00 in0.0 mm
04:30 AM 92.0°F33.3°C 57.0°F13.9°C 31% 4.0 mph SSW6.4 kmh SSW 5.0 mph8.0 kmh 29.80 in1009.1 mb - 0.00 in0.0 mm 0.00 in0.0 mm
04:45 AM 91.9°F33.3°C 57.8°F14.3°C 32% 3.8 mph SSE6.1 kmh SSE 7.0 mph11.3 kmh 29.80 in1009.1 mb - 0.00 in0.0 mm 0.00 in0.0 mm
05:00 AM 91.1°F32.8°C 58.8°F14.9°C 34% 1.3 mph S2.1 kmh S 2.0 mph3.2 kmh 29.80 in1009.1 mb - 0.00 in0.0 mm 0.00 in0.0 mm
05:15 AM 90.2°F32.3°C 58.9°F14.9°C 35% Calm Calm 1.0 mph1.6 kmh 29.81 in1009.5 mb - 0.00 in0.0 mm 0.00 in0.0 mm
05:30 AM 89.0°F31.7°C 58.5°F14.7°C 36% Calm Calm -- 29.81 in1009.5 mb - 0.00 in0.0 mm 0.00 in0.0 mm
05:45 AM 88.3°F31.3°C 59.5°F15.3°C 38% Calm Calm -- 29.81 in1009.5 mb - 0.00 in0.0 mm 0.00 in0.0 mm
06:00 AM 88.0°F31.1°C 59.2°F15.1°C 38% Calm Calm -- 29.80 in1009.1 mb - 0.00 in0.0 mm 0.00 in0.0 mm
06:15 AM 87.9°F31.1°C 59.2°F15.1°C 38% 0.1 mph SE0.2 kmh SE -- 29.80 in1009.1 mb - 0.00 in0.0 mm 0.00 in0.0 mm
06:30 AM 87.9°F31.1°C 59.9°F15.5°C 39% Calm Calm -- 29.80 in1009.1 mb - 0.00 in0.0 mm 0.00 in0.0 mm
06:45 AM 88.2°F31.2°C 60.1°F15.6°C 39% 0.1 mph E0.2 kmh E -- 29.80 in1009.1 mb - 0.00 in0.0 mm 0.00 in0.0 mm
07:00 AM 90.9°F32.7°C 60.3°F15.7°C 36% Calm Calm -- 29.80 in1009.1 mb - 0.00 in0.0 mm 0.00 in0.0 mm
07:15 AM 91.0°F32.8°C 60.3°F15.7°C 36% Calm Calm -- 29.81 in1009.5 mb - 0.00 in0.0 mm 0.00 in0.0 mm
07:30 AM 92.1°F33.4°C 59.7°F15.4°C 34% 0.8 mph SE1.3 kmh SE 3.0 mph4.8 kmh 29.81 in1009.5 mb - 0.00 in0.0 mm 0.00 in0.0 mm
07:45 AM 93.8°F34.3°C 59.5°F15.3°C 32% 0.2 mph NE0.3 kmh NE 1.0 mph1.6 kmh 29.82 in1009.8 mb - 0.00 in0.0 mm 0.00 in0.0 mm
08:00 AM 94.2°F34.6°C 60.7°F15.9°C 33% 1.1 mph E1.8 kmh E 2.0 mph3.2 kmh 29.82 in1009.8 mb - 0.00 in0.0 mm 0.00 in0.0 mm
08:15 AM 94.7°F34.8°C 59.3°F15.2°C 31% 0.3 mph E0.5 kmh E 1.0 mph1.6 kmh 29.81 in1009.5 mb - 0.00 in0.0 mm 0.00 in0.0 mm
08:30 AM 93.7°F34.3°C 59.4°F15.2°C 32% 1.1 mph E1.8 kmh E 1.0 mph1.6 kmh 29.82 in1009.8 mb - 0.00 in0.0 mm 0.00 in0.0 mm
08:45 AM 95.9°F35.5°C 59.5°F15.3°C 30% 0.5 mph NNE0.8 kmh NNE 3.0 mph4.8 kmh 29.82 in1009.8 mb - 0.00 in0.0 mm 0.00 in0.0 mm
09:00 AM 96.9°F36.1°C 59.4°F15.2°C 29% 1.3 mph SE2.1 kmh SE 4.0 mph6.4 kmh 29.82 in1009.8 mb - 0.00 in0.0 mm 0.00 in0.0 mm
09:15 AM 96.9°F36.1°C 58.4°F14.7°C 28% 0.4 mph NNE0.6 kmh NNE 2.0 mph3.2 kmh 29.83 in1010.2 mb - 0.00 in0.0 mm 0.00 in0.0 mm
09:30 AM 98.8°F37.1°C 59.0°F15.0°C 27% 1.8 mph SW2.9 kmh SW 3.0 mph4.8 kmh 29.82 in1009.8 mb - 0.00 in0.0 mm 0.00 in0.0 mm
09:45 AM 100.2°F37.9°C 60.2°F15.7°C 27% 0.2 mph NNW0.3 kmh NNW 1.0 mph1.6 kmh 29.82 in1009.8 mb - 0.00 in0.0 mm 0.00 in0.0 mm
10:00 AM 100.6°F38.1°C 58.4°F14.7°C 25% 0.9 mph SE1.4 kmh SE 1.0 mph1.6 kmh 29.81 in1009.5 mb - 0.00 in0.0 mm 0.00 in0.0 mm
10:15 AM 100.8°F38.2°C 58.5°F14.7°C 25% 1.5 mph NNW2.4 kmh NNW 4.0 mph6.4 kmh 29.81 in1009.5 mb - 0.00 in0.0 mm 0.00 in0.0 mm
10:30 AM 101.7°F38.7°C 59.3°F15.2°C 25% 0.6 mph NW1.0 kmh NW -- 29.81 in1009.5 mb - 0.00 in0.0 mm 0.00 in0.0 mm
10:45 AM 103.9°F39.9°C 58.8°F14.9°C 23% 0.4 mph E0.6 kmh E -- 29.80 in1009.1 mb - 0.00 in0.0 mm 0.00 in0.0 mm
11:00 AM 103.8°F39.9°C 58.8°F14.9°C 23% Calm Calm 1.0 mph1.6 kmh 29.80 in1009.1 mb - 0.00 in0.0 mm 0.00 in0.0 mm
11:15 AM 105.4°F40.8°C 60.0°F15.6°C 23% 0.7 mph S1.1 kmh S 2.0 mph3.2 kmh 29.80 in1009.1 mb - 0.00 in0.0 mm 0.00 in0.0 mm
11:30 AM 104.7°F40.4°C 58.2°F14.6°C 22% 1.1 mph SW1.8 kmh SW 2.0 mph3.2 kmh 29.80 in1009.1 mb - 0.00 in0.0 mm 0.00 in0.0 mm
11:45 AM 105.4°F40.8°C 58.8°F14.9°C 22% 0.2 mph SE0.3 kmh SE 3.0 mph4.8 kmh 29.79 in1008.8 mb - 0.00 in0.0 mm 0.00 in0.0 mm
12:00 PM 105.7°F40.9°C 57.7°F14.3°C 21% 0.4 mph SW0.6 kmh SW 1.0 mph1.6 kmh 29.78 in1008.5 mb - 0.00 in0.0 mm 0.00 in0.0 mm
12:15 PM 106.4°F41.3°C 58.3°F14.6°C 21% 1.0 mph NNW1.6 kmh NNW 4.0 mph6.4 kmh 29.78 in1008.5 mb - 0.00 in0.0 mm 0.00 in0.0 mm
12:30 PM 108.2°F42.3°C 57.0°F13.9°C 19% 0.8 mph SE1.3 kmh SE 1.0 mph1.6 kmh 29.77 in1008.1 mb - 0.00 in0.0 mm 0.00 in0.0 mm
12:45 PM 107.5°F41.9°C 57.9°F14.4°C 20% 2.7 mph ESE4.3 kmh ESE 4.0 mph6.4 kmh 29.76 in1007.8 mb - 0.00 in0.0 mm 0.00 in0.0 mm
01:00 PM 109.0°F42.8°C 57.7°F14.3°C 19% 2.0 mph SW3.2 kmh SW 4.0 mph6.4 kmh 29.76 in1007.8 mb - 0.00 in0.0 mm 0.00 in0.0 mm
01:15 PM 109.1°F42.8°C 57.7°F14.3°C 19% 0.7 mph WSW1.1 kmh WSW 2.0 mph3.2 kmh 29.75 in1007.5 mb - 0.00 in0.0 mm 0.00 in0.0 mm
01:30 PM 109.1°F42.8°C 57.7°F14.3°C 19% 1.9 mph NW3.1 kmh NW 3.0 mph4.8 kmh 29.74 in1007.1 mb - 0.00 in0.0 mm 0.00 in0.0 mm
01:45 PM 110.3°F43.5°C 57.2°F14.0°C 18% 3.0 mph SE4.8 kmh SE 4.0 mph6.4 kmh 29.73 in1006.8 mb - 0.00 in0.0 mm 0.00 in0.0 mm
02:00 PM 109.9°F43.3°C 55.3°F12.9°C 17% 1.9 mph WSW3.1 kmh WSW 2.0 mph3.2 kmh 29.72 in1006.4 mb - 0.00 in0.0 mm 0.00 in0.0 mm
02:15 PM 110.3°F43.5°C 57.2°F14.0°C 18% 0.4 mph SE0.6 kmh SE 1.0 mph1.6 kmh 29.71 in1006.1 mb - 0.00 in0.0 mm 0.00 in0.0 mm
02:30 PM 111.7°F44.3°C 56.7°F13.7°C 17% 3.0 mph S4.8 kmh S 5.0 mph8.0 kmh 29.71 in1006.1 mb - 0.00 in0.0 mm 0.00 in0.0 mm
02:45 PM 111.8°F44.3°C 56.8°F13.8°C 17% 1.9 mph S3.1 kmh S 4.0 mph6.4 kmh 29.70 in1005.8 mb - 0.00 in0.0 mm 0.00 in0.0 mm
03:00 PM 112.3°F44.6°C 55.5°F13.1°C 16% 1.1 mph WSW1.8 kmh WSW 2.0 mph3.2 kmh 29.69 in1005.4 mb - 0.00 in0.0 mm 0.00 in0.0 mm
03:15 PM 112.9°F44.9°C 56.0°F13.3°C 16% 2.2 mph SSW3.5 kmh SSW 4.0 mph6.4 kmh 29.68 in1005.1 mb - 0.00 in0.0 mm 0.00 in0.0 mm
03:30 PM 112.1°F44.5°C 55.4°F13.0°C 16% 1.1 mph SW1.8 kmh SW 5.0 mph8.0 kmh 29.67 in1004.7 mb - 0.00 in0.0 mm 0.00 in0.0 mm
03:45 PM 111.9°F44.4°C 55.2°F12.9°C 16% 2.5 mph S4.0 kmh S 6.0 mph9.7 kmh 29.66 in1004.4 mb - 0.00 in0.0 mm 0.00 in0.0 mm
04:00 PM 112.8°F44.9°C 54.2°F12.3°C 15% 0.5 mph NNW0.8 kmh NNW 1.0 mph1.6 kmh 29.66 in1004.4 mb - 0.00 in0.0 mm 0.00 in0.0 mm
04:15 PM 112.6°F44.8°C 54.0°F12.2°C 15% 2.3 mph WSW3.7 kmh WSW 4.0 mph6.4 kmh 29.65 in1004.1 mb - 0.00 in0.0 mm 0.00 in0.0 mm
04:30 PM 112.9°F44.9°C 56.0°F13.3°C 16% 1.8 mph WNW2.9 kmh WNW 5.0 mph8.0 kmh 29.65 in1004.1 mb - 0.00 in0.0 mm 0.00 in0.0 mm
04:45 PM 112.5°F44.7°C 53.9°F12.2°C 15% 2.1 mph SSW3.4 kmh SSW 2.0 mph3.2 kmh 29.64 in1003.7 mb - 0.00 in0.0 mm 0.00 in0.0 mm
05:00 PM 112.4°F44.7°C 53.8°F12.1°C 15% 0.3 mph WSW0.5 kmh WSW -- 29.64 in1003.7 mb - 0.00 in0.0 mm 0.00 in0.0 mm
05:15 PM 111.8°F44.3°C 53.4°F11.9°C 15% 1.8 mph NW2.9 kmh NW 3.0 mph4.8 kmh 29.63 in1003.4 mb - 0.00 in0.0 mm 0.00 in0.0 mm
05:30 PM 110.5°F43.6°C 52.3°F11.3°C 15% 1.7 mph NW2.7 kmh NW 2.0 mph3.2 kmh 29.63 in1003.4 mb - 0.00 in0.0 mm 0.00 in0.0 mm
05:45 PM 109.8°F43.2°C 53.6°F12.0°C 16% 1.7 mph NW2.7 kmh NW 1.0 mph1.6 kmh 29.63 in1003.4 mb - 0.00 in0.0 mm 0.00 in0.0 mm
06:00 PM 109.1°F42.8°C 53.0°F11.7°C 16% 3.7 mph NW6.0 kmh NW 5.0 mph8.0 kmh 29.64 in1003.7 mb - 0.00 in0.0 mm 0.00 in0.0 mm
06:15 PM 108.2°F42.3°C 52.3°F11.3°C 16% 0.7 mph NNW1.1 kmh NNW 3.0 mph4.8 kmh 29.64 in1003.7 mb - 0.00 in0.0 mm 0.00 in0.0 mm
06:30 PM 108.0°F42.2°C 50.4°F10.2°C 15% 1.7 mph NNW2.7 kmh NNW 3.0 mph4.8 kmh 29.63 in1003.4 mb - 0.00 in0.0 mm 0.00 in0.0 mm
06:45 PM 107.2°F41.8°C 51.5°F10.8°C 16% Calm Calm 1.0 mph1.6 kmh 29.64 in1003.7 mb - 0.00 in0.0 mm 0.00 in0.0 mm
07:00 PM 106.5°F41.4°C 52.6°F11.4°C 17% 0.4 mph NNW0.6 kmh NNW 1.0 mph1.6 kmh 29.64 in1003.7 mb - 0.00 in0.0 mm 0.00 in0.0 mm
07:15 PM 104.8°F40.4°C 54.2°F12.3°C 19% 7.2 mph NNW11.6 kmh NNW 10.0 mph16.1 kmh 29.66 in1004.4 mb - 0.00 in0.0 mm 0.00 in0.0 mm
07:30 PM 103.6°F39.8°C 53.3°F11.8°C 19% 3.1 mph NNW5.0 kmh NNW 4.0 mph6.4 kmh 29.66 in1004.4 mb - 0.00 in0.0 mm 0.00 in0.0 mm
07:45 PM 103.1°F39.5°C 52.9°F11.6°C 19% 6.8 mph NW10.9 kmh NW 11.0 mph17.7 kmh 29.66 in1004.4 mb - 0.00 in0.0 mm 0.00 in0.0 mm
08:00 PM 102.7°F39.3°C 53.9°F12.2°C 20% 3.5 mph NNW5.6 kmh NNW 6.0 mph9.7 kmh 29.67 in1004.7 mb - 0.00 in0.0 mm 0.00 in0.0 mm
08:15 PM 102.5°F39.2°C 53.8°F12.1°C 20% 3.6 mph NW5.8 kmh NW 7.0 mph11.3 kmh 29.66 in1004.4 mb - 0.00 in0.0 mm 0.00 in0.0 mm
08:30 PM 102.4°F39.1°C 52.3°F11.3°C 19% 2.9 mph WNW4.7 kmh WNW 7.0 mph11.3 kmh 29.68 in1005.1 mb - 0.00 in0.0 mm 0.00 in0.0 mm
08:45 PM 102.3°F39.1°C 50.8°F10.4°C 18% 3.9 mph NNW6.3 kmh NNW 7.0 mph11.3 kmh 29.68 in1005.1 mb - 0.00 in0.0 mm 0.00 in0.0 mm
09:00 PM 102.0°F38.9°C 50.5°F10.3°C 18% 2.8 mph NW4.5 kmh NW 6.0 mph9.7 kmh 29.67 in1004.7 mb - 0.00 in0.0 mm 0.00 in0.0 mm
09:15 PM 101.7°F38.7°C 50.3°F10.2°C 18% 2.5 mph NW4.0 kmh NW 3.0 mph4.8 kmh 29.68 in1005.1 mb - 0.00 in0.0 mm 0.00 in0.0 mm
09:30 PM 101.2°F38.4°C 51.3°F10.7°C 19% 1.2 mph NNW1.9 kmh NNW 2.0 mph3.2 kmh 29.68 in1005.1 mb - 0.00 in0.0 mm 0.00 in0.0 mm
09:45 PM 100.4°F38.0°C 50.7°F10.4°C 19% 1.4 mph NW2.3 kmh NW 3.0 mph4.8 kmh 29.69 in1005.4 mb - 0.00 in0.0 mm 0.00 in0.0 mm
10:00 PM 99.8°F37.7°C 51.6°F10.9°C 20% Calm Calm -- 29.69 in1005.4 mb - 0.00 in0.0 mm 0.00 in0.0 mm
10:15 PM 97.7°F36.5°C 52.4°F11.3°C 22% Calm Calm -- 29.68 in1005.1 mb - 0.00 in0.0 mm 0.00 in0.0 mm
10:30 PM 97.0°F36.1°C 53.1°F11.7°C 23% Calm Calm -- 29.68 in1005.1 mb - 0.00 in0.0 mm 0.00 in0.0 mm
10:45 PM 95.5°F35.3°C 54.1°F12.3°C 25% Calm Calm -- 29.68 in1005.1 mb - 0.00 in0.0 mm 0.00 in0.0 mm
11:00 PM 95.0°F35.0°C 53.6°F12.0°C 25% Calm Calm -- 29.68 in1005.1 mb - 0.00 in0.0 mm 0.00 in0.0 mm
11:15 PM 95.2°F35.1°C 52.7°F11.5°C 24% Calm Calm -- 29.68 in1005.1 mb - 0.00 in0.0 mm 0.00 in0.0 mm
11:30 PM 95.5°F35.3°C 53.0°F11.7°C 24% Calm Calm -- 29.68 in1005.1 mb - 0.00 in0.0 mm 0.00 in0.0 mm
11:45 PM 95.5°F35.3°C 51.8°F11.0°C 23% Calm Calm -- 29.68 in1005.1 mb - 0.00 in0.0 mm 0.00 in0.0 mm